createdAt,value
2023-04-08T00:01:53.401Z,93.90
2023-04-08T00:04:20.931Z,87.87
2023-04-08T00:06:48.062Z,76.90
2023-04-08T00:09:15.383Z,72.53
2023-04-08T00:11:42.631Z,61.27
2023-04-08T00:14:09.777Z,66.77
2023-04-08T00:16:36.940Z,63.77
2023-04-08T00:19:04.103Z,50.17
2023-04-08T00:21:31.533Z,46.40
2023-04-08T00:23:58.704Z,56.77
2023-04-08T00:26:26.478Z,58.90
2023-04-08T00:28:53.574Z,88.97
2023-04-08T00:31:20.874Z,89.87
2023-04-08T00:33:48.118Z,95.40
2023-04-08T00:36:15.227Z,100.57
2023-04-08T00:38:42.329Z,58.53
2023-04-08T00:41:09.449Z,60.30
2023-04-08T00:43:36.534Z,76.47
2023-04-08T00:46:03.837Z,71.33
2023-04-08T00:48:31.490Z,43.93
2023-04-08T00:50:59.077Z,47.80
2023-04-08T00:53:26.374Z,44.53
2023-04-08T00:55:53.451Z,61.97
2023-04-08T00:58:20.602Z,50.67
2023-04-08T01:00:50.491Z,52.67
2023-04-08T01:03:19.433Z,48.07
2023-04-08T01:05:46.768Z,62.27
2023-04-08T01:08:13.867Z,51.73
2023-04-08T01:10:42.884Z,57.80
2023-04-08T01:13:11.922Z,54.67
2023-04-08T01:15:40.850Z,74.77
2023-04-08T01:18:08.533Z,85.53
2023-04-08T01:20:35.713Z,56.40
2023-04-08T01:23:08.727Z,52.10
2023-04-08T01:25:36.798Z,55.70
2023-04-08T01:28:08.218Z,49.50
2023-04-08T01:30:35.437Z,52.77
2023-04-08T01:33:02.952Z,43.77
2023-04-08T01:35:31.169Z,44.60
2023-04-08T01:37:58.274Z,52.27
2023-04-08T01:40:25.469Z,49.97
2023-04-08T01:42:53.420Z,53.40
2023-04-08T01:45:20.593Z,59.93
2023-04-08T01:47:48.294Z,76.60
2023-04-08T01:50:15.769Z,89.27
2023-04-08T01:52:46.056Z,65.37
2023-04-08T01:55:13.171Z,56.17
2023-04-08T01:57:40.967Z,57.07
2023-04-08T02:00:08.808Z,52.63
2023-04-08T02:02:36.956Z,46.03
2023-04-08T02:05:04.271Z,50.00
2023-04-08T02:07:31.399Z,40.30
2023-04-08T02:09:58.818Z,33.73
2023-04-08T02:12:26.616Z,39.80
2023-04-08T02:14:54.050Z,39.47
2023-04-08T02:17:35.344Z,40.70
2023-04-08T02:20:17.135Z,42.83
2023-04-08T02:23:03.348Z,46.53
2023-04-08T02:25:30.949Z,36.77
2023-04-08T02:27:58.067Z,41.73
2023-04-08T02:30:25.391Z,51.33
2023-04-08T02:32:52.533Z,47.47
2023-04-08T02:35:19.651Z,39.27
2023-04-08T02:37:48.133Z,36.13
2023-04-08T02:40:30.856Z,36.23
2023-04-08T02:42:58.035Z,34.17
2023-04-08T02:45:28.632Z,33.57
2023-04-08T02:47:55.916Z,30.87
2023-04-08T02:50:23.064Z,34.07
2023-04-08T02:52:50.130Z,31.67
2023-04-08T02:55:35.815Z,36.93
2023-04-08T02:58:02.909Z,30.17
2023-04-08T03:00:30.054Z,34.93
2023-04-08T03:02:57.392Z,32.77
2023-04-08T03:05:24.714Z,34.87
2023-04-08T03:07:51.804Z,51.83
2023-04-08T03:10:18.915Z,48.60
2023-04-08T03:12:46.044Z,51.47
2023-04-08T03:15:13.134Z,33.93
2023-04-08T03:17:40.477Z,37.33
2023-04-08T03:20:08.061Z,39.53
2023-04-08T03:22:35.253Z,61.73
2023-04-08T03:25:02.366Z,160.60
2023-04-08T03:27:29.498Z,384.17
2023-04-08T03:29:57.877Z,148.83
2023-04-08T03:32:25.276Z,123.93
2023-04-08T03:34:52.393Z,99.33
2023-04-08T03:37:19.655Z,76.63
2023-04-08T03:39:47.160Z,66.60
2023-04-08T03:42:14.275Z,61.63
2023-04-08T03:44:41.386Z,95.93
2023-04-08T03:47:08.504Z,97.87
2023-04-08T03:49:35.640Z,97.40
2023-04-08T03:52:02.792Z,64.67
2023-04-08T03:54:29.906Z,60.73
2023-04-08T03:56:57.004Z,91.83
2023-04-08T03:59:24.630Z,48.63
2023-04-08T04:01:53.518Z,38.40
2023-04-08T04:04:21.297Z,34.67
2023-04-08T04:06:48.795Z,36.73
2023-04-08T04:09:16.905Z,37.93
2023-04-08T04:11:44.085Z,31.80
2023-04-08T04:14:11.464Z,42.10
2023-04-08T04:16:38.710Z,40.40
2023-04-08T04:19:06.067Z,35.47
2023-04-08T04:21:33.194Z,36.13
2023-04-08T04:24:00.468Z,36.27
2023-04-08T04:26:27.547Z,34.87
2023-04-08T04:28:54.642Z,42.63
2023-04-08T04:31:22.117Z,40.53
2023-04-08T04:33:49.480Z,33.87
2023-04-08T04:36:16.555Z,41.43
2023-04-08T04:38:43.872Z,36.83
2023-04-08T04:41:11.033Z,68.97
2023-04-08T04:43:38.174Z,71.67
2023-04-08T04:46:08.839Z,52.97
2023-04-08T04:48:36.350Z,47.33
2023-04-08T04:51:03.471Z,54.27
2023-04-08T04:53:31.593Z,50.27
2023-04-08T04:55:58.916Z,43.60
2023-04-08T04:58:26.011Z,46.93
2023-04-08T05:00:53.140Z,43.43
2023-04-08T05:03:20.660Z,49.20
2023-04-08T05:05:51.528Z,54.83
2023-04-08T05:08:18.635Z,55.23
2023-04-08T05:10:45.908Z,60.37
2023-04-08T05:13:13.029Z,52.37
2023-04-08T05:15:40.460Z,53.93
2023-04-08T05:18:07.699Z,51.57
2023-04-08T05:20:34.846Z,52.53
2023-04-08T05:23:02.001Z,52.00
2023-04-08T05:25:29.072Z,48.73
2023-04-08T05:27:56.634Z,45.67
2023-04-08T05:30:23.782Z,48.97
2023-04-08T05:32:51.078Z,49.67
2023-04-08T05:35:18.221Z,45.17
2023-04-08T05:37:45.616Z,60.50
2023-04-08T05:40:12.756Z,43.77
2023-04-08T05:42:39.876Z,37.67
2023-04-08T05:45:07.398Z,53.03
2023-04-08T05:47:34.609Z,48.90
2023-04-08T05:50:01.719Z,37.37
2023-04-08T05:52:28.873Z,40.87
2023-04-08T05:54:55.991Z,46.87
2023-04-08T05:57:23.049Z,51.43
2023-04-08T05:59:50.260Z,48.53
2023-04-08T06:02:17.595Z,55.37
2023-04-08T06:04:44.787Z,47.00
2023-04-08T06:07:12.018Z,55.20
2023-04-08T06:09:39.120Z,50.37
2023-04-08T06:12:06.297Z,40.23
2023-04-08T06:14:33.442Z,37.87
2023-04-08T06:17:00.547Z,37.47
2023-04-08T06:19:27.645Z,38.47
2023-04-08T06:21:58.824Z,35.57
2023-04-08T06:24:29.508Z,33.73
2023-04-08T06:26:56.803Z,29.70
2023-04-08T06:29:24.001Z,35.50
2023-04-08T06:31:51.535Z,36.33
2023-04-08T06:34:18.655Z,37.13
2023-04-08T06:36:45.792Z,36.43
2023-04-08T06:39:13.059Z,35.43
2023-04-08T06:41:40.165Z,45.13
2023-04-08T06:44:07.279Z,36.37
2023-04-08T06:46:34.350Z,36.03
2023-04-08T06:49:01.497Z,30.63
2023-04-08T06:51:28.608Z,22.80
2023-04-08T06:53:56.307Z,36.10
2023-04-08T06:56:23.443Z,28.33
2023-04-08T06:58:51.049Z,30.83
2023-04-08T07:01:18.314Z,26.93
2023-04-08T07:03:45.541Z,27.93
2023-04-08T07:06:12.765Z,27.27
2023-04-08T07:08:39.936Z,25.83
2023-04-08T07:11:07.805Z,29.03
2023-04-08T07:13:34.972Z,30.00
2023-04-08T07:16:02.044Z,25.43
2023-04-08T07:18:29.150Z,28.80
2023-04-08T07:20:56.412Z,33.20
2023-04-08T07:23:23.618Z,36.10
2023-04-08T07:25:50.724Z,26.60
2023-04-08T07:28:17.919Z,20.03
2023-04-08T07:30:46.239Z,33.97
2023-04-08T07:33:13.608Z,21.30
2023-04-08T07:35:42.028Z,20.30
2023-04-08T07:38:11.557Z,17.47
2023-04-08T07:40:38.693Z,21.57
2023-04-08T07:43:05.949Z,21.70
2023-04-08T07:45:33.177Z,16.30
2023-04-08T07:48:00.397Z,17.38
2023-04-08T07:50:27.573Z,19.40
2023-04-08T07:52:54.694Z,25.43
2023-04-08T07:55:21.792Z,18.55
2023-04-08T07:57:48.934Z,15.88
2023-04-08T08:00:21.469Z,14.32
2023-04-08T08:02:48.895Z,12.60
2023-04-08T08:05:16.251Z,11.80
2023-04-08T08:07:43.482Z,11.70
2023-04-08T08:10:11.297Z,10.20
2023-04-08T08:12:38.474Z,9.57
2023-04-08T08:15:05.781Z,9.57
2023-04-08T08:17:33.823Z,9.43
2023-04-08T08:20:01.527Z,10.73
2023-04-08T08:22:28.702Z,10.30
2023-04-08T08:24:56.761Z,16.67
2023-04-08T08:27:24.035Z,14.02
2023-04-08T08:29:51.246Z,11.05
2023-04-08T08:32:18.377Z,12.77
2023-04-08T08:34:45.671Z,20.98
2023-04-08T08:37:12.809Z,12.90
2023-04-08T08:39:39.911Z,18.17
2023-04-08T08:42:06.978Z,15.32
2023-04-08T08:44:34.103Z,11.20
2023-04-08T08:47:01.335Z,9.10
2023-04-08T08:49:28.487Z,9.95
2023-04-08T08:51:55.942Z,8.80
2023-04-08T08:54:23.155Z,8.07
2023-04-08T08:56:50.326Z,7.80
2023-04-08T08:59:17.423Z,10.32
2023-04-08T09:01:44.706Z,11.93
2023-04-08T09:04:12.182Z,9.20
2023-04-08T09:06:39.530Z,9.15
2023-04-08T09:09:10.280Z,11.60
2023-04-08T09:11:38.681Z,13.18
2023-04-08T09:14:07.033Z,8.40
2023-04-08T09:16:34.291Z,11.63
2023-04-08T09:19:09.177Z,15.68
2023-04-08T09:21:36.341Z,16.85
2023-04-08T09:24:03.430Z,16.02
2023-04-08T09:26:30.735Z,17.08
2023-04-08T09:28:58.881Z,17.52
2023-04-08T09:31:27.708Z,18.98
2023-04-08T09:33:55.459Z,10.90
2023-04-08T09:36:22.829Z,15.25
2023-04-08T09:38:50.492Z,19.88
2023-04-08T09:41:18.188Z,13.07
2023-04-08T09:43:50.383Z,12.43
2023-04-08T09:46:18.547Z,12.77
2023-04-08T09:49:02.710Z,12.98
2023-04-08T09:51:30.089Z,12.18
2023-04-08T09:53:58.085Z,16.25
2023-04-08T09:56:25.952Z,13.38
2023-04-08T09:58:53.469Z,13.63
2023-04-08T10:01:23.073Z,16.77
2023-04-08T10:03:51.037Z,9.55
2023-04-08T10:06:18.955Z,15.80
2023-04-08T10:08:46.162Z,13.23
2023-04-08T10:11:13.360Z,9.65
2023-04-08T10:13:40.456Z,8.27
2023-04-08T10:16:27.610Z,13.40
2023-04-08T10:18:58.114Z,6.65
2023-04-08T10:21:32.096Z,28.23
2023-04-08T10:24:00.086Z,9.10
2023-04-08T10:26:34.451Z,6.15
2023-04-08T10:29:19.714Z,6.65
2023-04-08T10:31:50.754Z,8.05
2023-04-08T10:34:21.510Z,6.00
2023-04-08T10:36:49.099Z,9.57
2023-04-08T10:39:16.532Z,7.68
2023-04-08T10:41:44.168Z,13.02
2023-04-08T10:44:23.891Z,10.25
2023-04-08T10:46:51.360Z,9.85
2023-04-08T10:49:18.680Z,8.98
2023-04-08T10:51:46.124Z,18.52
2023-04-08T10:54:13.813Z,20.35
2023-04-08T10:56:47.875Z,16.20
2023-04-08T10:59:20.039Z,13.27
2023-04-08T11:01:47.305Z,13.93
2023-04-08T11:04:15.312Z,12.55
2023-04-08T11:06:43.107Z,11.27
2023-04-08T11:09:10.458Z,15.90
2023-04-08T11:11:37.933Z,15.90
2023-04-08T11:14:05.882Z,19.95
2023-04-08T11:16:33.559Z,13.02
2023-04-08T11:19:00.927Z,18.70
2023-04-08T11:21:29.564Z,22.35
2023-04-08T11:23:57.077Z,14.23
2023-04-08T11:26:24.252Z,15.88
2023-04-08T11:28:52.067Z,17.08
2023-04-08T11:31:22.675Z,13.63
2023-04-08T11:33:53.526Z,14.00
2023-04-08T11:36:21.818Z,21.40
2023-04-08T11:38:48.998Z,17.00
2023-04-08T11:41:16.375Z,13.15
2023-04-08T11:43:56.301Z,15.68
2023-04-08T11:46:23.891Z,19.08
2023-04-08T11:49:07.579Z,12.60
2023-04-08T11:51:35.454Z,16.98
2023-04-08T11:54:09.017Z,14.82
2023-04-08T11:56:45.855Z,22.60
2023-04-08T11:59:12.980Z,18.85
2023-04-08T12:01:40.405Z,15.57
2023-04-08T12:04:10.396Z,14.38
2023-04-08T12:06:37.731Z,17.25
2023-04-08T12:09:04.879Z,12.68
2023-04-08T12:11:32.066Z,12.38
2023-04-08T12:13:59.136Z,11.93
2023-04-08T12:16:26.404Z,12.80
2023-04-08T12:18:53.823Z,15.13
2023-04-08T12:21:21.122Z,17.70
2023-04-08T12:23:48.413Z,21.02
2023-04-08T12:26:15.697Z,16.30
2023-04-08T12:28:42.853Z,22.02
2023-04-08T12:31:09.943Z,17.65
2023-04-08T12:33:37.105Z,25.05
2023-04-08T12:36:04.536Z,19.02
2023-04-08T12:38:31.709Z,14.40
2023-04-08T12:40:58.823Z,16.20
2023-04-08T12:43:26.036Z,26.95
2023-04-08T12:45:53.187Z,23.13
2023-04-08T12:48:20.508Z,19.33
2023-04-08T12:50:47.624Z,19.90
2023-04-08T12:53:14.754Z,21.70
2023-04-08T12:55:43.849Z,22.50
2023-04-08T12:58:11.754Z,21.55
2023-04-08T13:00:39.008Z,20.98
2023-04-08T13:03:06.451Z,29.85
2023-04-08T13:08:07.259Z,34.60
2023-04-08T13:10:34.346Z,39.92
2023-04-08T13:13:01.610Z,30.17
2023-04-08T13:15:28.741Z,26.90
2023-04-08T13:17:56.020Z,21.08
2023-04-08T13:20:25.773Z,23.10
2023-04-08T13:22:56.143Z,23.90
2023-04-08T13:25:23.268Z,20.83
2023-04-08T13:27:50.593Z,31.15
2023-04-08T13:30:17.722Z,34.22
2023-04-08T13:32:44.874Z,42.67
2023-04-08T13:35:12.000Z,35.30
2023-04-08T13:37:40.427Z,46.63
2023-04-08T13:40:08.713Z,32.72
2023-04-08T13:42:35.895Z,41.10
2023-04-08T13:45:03.024Z,30.38
2023-04-08T13:47:30.148Z,39.08
2023-04-08T13:49:57.312Z,61.25
2023-04-08T13:52:24.442Z,57.75
2023-04-08T13:54:51.578Z,83.95
2023-04-08T13:57:18.683Z,52.17
2023-04-08T13:59:45.819Z,72.85
2023-04-08T14:02:13.083Z,73.38
2023-04-08T14:04:40.482Z,64.15
2023-04-08T14:07:07.744Z,61.00
2023-04-08T14:09:35.810Z,63.72
2023-04-08T14:12:02.916Z,58.45
2023-04-08T14:14:30.276Z,51.85
2023-04-08T14:16:57.426Z,55.17
2023-04-08T14:19:24.554Z,56.00
2023-04-08T14:21:51.983Z,45.33
2023-04-08T14:24:19.070Z,47.30
2023-04-08T14:26:46.357Z,52.50
2023-04-08T14:29:13.502Z,30.17
2023-04-08T14:31:40.865Z,34.08
2023-04-08T14:34:08.168Z,33.45
2023-04-08T14:36:35.262Z,63.63
2023-04-08T14:39:02.666Z,69.78
2023-04-08T14:41:29.779Z,69.32
2023-04-08T14:43:57.120Z,46.65
2023-04-08T14:46:25.371Z,64.78
2023-04-08T14:48:54.411Z,36.75
2023-04-08T14:51:21.502Z,80.13
2023-04-08T14:53:48.614Z,54.00
2023-04-08T14:56:16.081Z,33.67
2023-04-08T14:58:43.212Z,23.15
2023-04-08T15:01:11.470Z,35.42
2023-04-08T15:03:38.699Z,31.02
2023-04-08T15:06:06.804Z,26.02
2023-04-08T15:08:35.027Z,24.10
2023-04-08T15:11:02.196Z,30.70
2023-04-08T15:13:29.384Z,27.87
2023-04-08T15:15:56.697Z,33.60
2023-04-08T15:18:24.008Z,48.63
2023-04-08T15:20:51.540Z,46.00
2023-04-08T15:23:18.875Z,41.90
2023-04-08T15:25:47.425Z,39.07
2023-04-08T15:28:14.548Z,36.15
2023-04-08T15:30:41.697Z,28.05
2023-04-08T15:33:08.914Z,34.38
2023-04-08T15:35:37.930Z,31.48
2023-04-08T15:38:05.021Z,71.25
2023-04-08T15:40:33.779Z,49.90
2023-04-08T15:43:01.307Z,54.33
2023-04-08T15:45:28.597Z,39.65
2023-04-08T15:47:56.018Z,39.03
2023-04-08T15:50:23.175Z,43.70
2023-04-08T15:52:50.323Z,43.90
2023-04-08T15:55:17.924Z,41.38
2023-04-08T15:57:45.068Z,37.65
2023-04-08T16:00:13.186Z,33.72
2023-04-08T16:02:42.231Z,28.58
2023-04-08T16:05:09.813Z,27.35
2023-04-08T16:07:37.376Z,29.08
2023-04-08T16:10:04.662Z,29.25
2023-04-08T16:12:32.737Z,24.70
2023-04-08T16:14:59.825Z,27.27
2023-04-08T16:17:28.133Z,33.63
2023-04-08T16:19:55.341Z,49.33
2023-04-08T16:22:22.519Z,43.67
2023-04-08T16:24:49.648Z,32.70
2023-04-08T16:27:16.998Z,47.00
2023-04-08T16:29:44.179Z,43.00
2023-04-08T16:32:11.300Z,33.10
2023-04-08T16:34:38.444Z,40.70
2023-04-08T16:37:05.650Z,33.35
2023-04-08T16:39:32.813Z,38.38
2023-04-08T16:42:00.577Z,51.97
2023-04-08T16:44:27.731Z,46.80
2023-04-08T16:46:54.890Z,33.75
2023-04-08T16:49:22.697Z,32.65
2023-04-08T16:51:49.832Z,47.95
2023-04-08T16:54:16.975Z,40.58
2023-04-08T16:56:45.737Z,43.25
2023-04-08T16:59:13.208Z,72.80
2023-04-08T17:01:40.396Z,68.82
2023-04-08T17:04:07.621Z,44.75
2023-04-08T17:06:36.126Z,42.65
2023-04-08T17:09:03.922Z,49.45
2023-04-08T17:11:31.640Z,49.78
2023-04-08T17:13:59.645Z,38.72
2023-04-08T17:16:26.808Z,53.60
2023-04-08T17:18:54.195Z,51.85
2023-04-08T17:21:21.427Z,99.55
2023-04-08T17:23:48.757Z,87.35
2023-04-08T17:26:16.072Z,97.43
2023-04-08T17:28:43.448Z,113.30
2023-04-08T17:31:11.049Z,77.13
2023-04-08T17:33:38.179Z,60.67
2023-04-08T17:36:05.465Z,54.65
2023-04-08T17:38:32.871Z,51.20
2023-04-08T17:40:59.988Z,51.33
2023-04-08T17:43:27.304Z,46.30
2023-04-08T17:45:54.396Z,44.13
2023-04-08T17:48:21.647Z,39.20
2023-04-08T17:50:48.817Z,203.90
2023-04-08T17:53:15.920Z,46.28
2023-04-08T17:55:43.023Z,50.22
2023-04-08T17:58:10.151Z,49.85
2023-04-08T18:00:37.254Z,43.47
2023-04-08T18:03:04.588Z,42.08
2023-04-08T18:05:31.862Z,38.45
2023-04-08T18:07:59.316Z,35.97
2023-04-08T18:10:26.475Z,35.83
2023-04-08T18:12:57.808Z,34.40
2023-04-08T18:15:31.072Z,30.05
2023-04-08T18:17:58.227Z,36.03
2023-04-08T18:20:25.355Z,43.15
2023-04-08T18:22:52.522Z,91.07
2023-04-08T18:25:22.332Z,82.50
2023-04-08T18:27:49.899Z,86.95
2023-04-08T18:30:17.082Z,91.95
2023-04-08T18:32:44.180Z,97.95
2023-04-08T18:35:11.340Z,71.80
2023-04-08T18:37:38.502Z,68.97
2023-04-08T18:40:07.174Z,69.87
2023-04-08T18:42:34.306Z,86.07
2023-04-08T18:45:01.429Z,98.20
2023-04-08T18:47:28.605Z,120.40
2023-04-08T18:49:58.118Z,115.43
2023-04-08T18:52:25.253Z,85.13
2023-04-08T18:54:52.618Z,82.33
2023-04-08T18:57:20.189Z,74.53
2023-04-08T18:59:49.418Z,75.77
2023-04-08T19:02:17.788Z,117.33
2023-04-08T19:04:44.871Z,86.57
2023-04-08T19:07:12.197Z,109.10
2023-04-08T19:09:40.008Z,128.43
2023-04-08T19:12:07.123Z,86.60
2023-04-08T19:14:34.265Z,88.47
2023-04-08T19:17:01.790Z,92.00
2023-04-08T19:19:28.894Z,124.77
2023-04-08T19:21:56.250Z,128.27
2023-04-08T19:24:23.437Z,107.40
2023-04-08T19:26:53.072Z,90.93
2023-04-08T19:29:22.984Z,82.50
2023-04-08T19:31:50.182Z,90.60
2023-04-08T19:34:17.281Z,105.13
2023-04-08T19:36:44.399Z,131.45
2023-04-08T19:39:11.480Z,137.38
2023-04-08T19:41:38.556Z,139.67
2023-04-08T19:44:05.967Z,135.90
2023-04-08T19:46:33.081Z,104.70
2023-04-08T19:49:00.287Z,103.33
2023-04-08T19:51:27.911Z,84.87
2023-04-08T19:53:55.007Z,82.87
2023-04-08T19:56:22.095Z,104.10
2023-04-08T19:58:49.530Z,108.23
2023-04-08T20:01:16.950Z,111.68
2023-04-08T20:03:49.997Z,101.15
2023-04-08T20:06:17.866Z,122.60
2023-04-08T20:08:45.480Z,93.63
2023-04-08T20:11:12.989Z,76.63
2023-04-08T20:13:40.414Z,65.30
2023-04-08T20:16:07.725Z,100.37
2023-04-08T20:18:34.952Z,106.78
2023-04-08T20:21:02.080Z,100.80
2023-04-08T20:23:29.239Z,101.73
2023-04-08T20:25:56.798Z,106.97
2023-04-08T20:28:23.967Z,118.77
2023-04-08T20:30:51.794Z,112.07
2023-04-08T20:33:19.204Z,105.90
2023-04-08T20:35:47.593Z,72.03
2023-04-08T20:38:14.993Z,103.33
2023-04-08T20:40:44.141Z,99.70
2023-04-08T20:43:11.356Z,118.87
2023-04-08T20:45:38.539Z,119.80
2023-04-08T20:48:07.357Z,118.43
2023-04-08T20:50:34.717Z,102.73
2023-04-08T20:53:01.812Z,76.67
2023-04-08T20:55:28.966Z,81.23
2023-04-08T20:57:56.297Z,73.53
2023-04-08T21:00:23.446Z,86.43
2023-04-08T21:02:50.976Z,90.00
2023-04-08T21:05:18.236Z,84.87
2023-04-08T21:07:45.557Z,115.73
2023-04-08T21:10:14.167Z,107.63
2023-04-08T21:12:41.307Z,79.13
2023-04-08T21:15:08.688Z,72.83
2023-04-08T21:17:35.922Z,71.63
2023-04-08T21:20:04.166Z,83.13
2023-04-08T21:22:32.208Z,69.17
2023-04-08T21:24:59.367Z,76.43
2023-04-08T21:27:26.467Z,76.20
2023-04-08T21:29:53.636Z,76.90
2023-04-08T21:32:20.819Z,73.90
2023-04-08T21:34:48.000Z,75.37
2023-04-08T21:37:15.422Z,84.50
2023-04-08T21:39:42.558Z,80.40
2023-04-08T21:42:09.646Z,85.80
2023-04-08T21:44:36.866Z,87.17
2023-04-08T21:47:04.111Z,88.83
2023-04-08T21:49:31.509Z,83.33
2023-04-08T21:51:58.737Z,74.37
2023-04-08T21:54:25.853Z,73.73
2023-04-08T21:56:52.994Z,91.80
2023-04-08T21:59:20.480Z,98.00
2023-04-08T22:01:47.978Z,90.03
2023-04-08T22:04:15.720Z,73.70
2023-04-08T22:06:42.886Z,62.87
2023-04-08T22:09:09.993Z,60.13
2023-04-08T22:11:37.237Z,59.60
2023-04-08T22:14:04.301Z,45.77
2023-04-08T22:16:32.171Z,56.40
2023-04-08T22:18:59.282Z,57.27
2023-04-08T22:21:26.388Z,68.73
2023-04-08T22:23:53.513Z,70.47
2023-04-08T22:26:21.139Z,84.87
2023-04-08T22:28:48.279Z,87.87
2023-04-08T22:31:15.484Z,88.60
2023-04-08T22:33:42.576Z,70.27
2023-04-08T22:36:09.736Z,79.57
2023-04-08T22:38:36.920Z,80.23
2023-04-08T22:41:04.038Z,72.33
2023-04-08T22:43:31.184Z,72.07
2023-04-08T22:45:58.333Z,74.80
2023-04-08T22:48:25.488Z,66.07
2023-04-08T22:50:52.876Z,59.77
2023-04-08T22:53:19.979Z,57.47
2023-04-08T22:55:47.089Z,59.60
2023-04-08T22:58:14.189Z,65.27
2023-04-08T23:00:41.497Z,72.60
2023-04-08T23:03:08.598Z,66.93
2023-04-08T23:05:36.056Z,67.40
2023-04-08T23:08:03.210Z,61.20
2023-04-08T23:10:30.297Z,61.57
2023-04-08T23:12:57.397Z,68.33
2023-04-08T23:15:24.500Z,61.93
2023-04-08T23:17:51.640Z,70.23
2023-04-08T23:20:18.812Z,64.03
2023-04-08T23:22:46.043Z,50.30
2023-04-08T23:25:13.207Z,50.57
2023-04-08T23:27:40.440Z,57.63
2023-04-08T23:30:07.888Z,54.47
2023-04-08T23:32:35.409Z,57.87
2023-04-08T23:35:02.616Z,54.40
2023-04-08T23:37:29.816Z,54.37
2023-04-08T23:39:56.975Z,55.60
2023-04-08T23:42:27.177Z,69.60
2023-04-08T23:44:54.923Z,104.07
2023-04-08T23:47:22.371Z,64.97
2023-04-08T23:49:49.546Z,96.93
2023-04-08T23:52:16.789Z,96.23
2023-04-08T23:54:43.884Z,83.60
2023-04-08T23:57:10.963Z,73.03
2023-04-08T23:59:38.088Z,68.17
